sensor_id;sensor_type;location;lat;lon;timestamp;P1;durP1;ratioP1;P2;durP2;ratioP2
33738;SDS011;20063;51.730;11.110;2022-07-31T00:00:49;7.28;;;4.15;;
33738;SDS011;20063;51.730;11.110;2022-07-31T00:03:15;8.38;;;4.15;;
33738;SDS011;20063;51.730;11.110;2022-07-31T00:05:41;6.85;;;4.63;;
33738;SDS011;20063;51.730;11.110;2022-07-31T00:08:06;7.22;;;3.97;;
33738;SDS011;20063;51.730;11.110;2022-07-31T00:10:32;7.93;;;4.03;;
33738;SDS011;20063;51.730;11.110;2022-07-31T00:12:57;5.22;;;3.97;;
33738;SDS011;20063;51.730;11.110;2022-07-31T00:17:52;10.65;;;4.25;;
33738;SDS011;20063;51.730;11.110;2022-07-31T00:20:17;5.72;;;4.18;;
33738;SDS011;20063;51.730;11.110;2022-07-31T00:22:54;7.82;;;4.43;;
33738;SDS011;20063;51.730;11.110;2022-07-31T00:25:21;6.43;;;4.07;;
33738;SDS011;20063;51.730;11.110;2022-07-31T00:27:46;5.72;;;3.70;;
33738;SDS011;20063;51.730;11.110;2022-07-31T00:30:12;7.95;;;4.53;;
33738;SDS011;20063;51.730;11.110;2022-07-31T00:32:39;14.05;;;4.32;;
33738;SDS011;20063;51.730;11.110;2022-07-31T00:35:05;7.03;;;4.70;;
33738;SDS011;20063;51.730;11.110;2022-07-31T00:37:34;13.35;;;5.03;;
33738;SDS011;20063;51.730;11.110;2022-07-31T00:40:01;14.18;;;4.65;;
33738;SDS011;20063;51.730;11.110;2022-07-31T00:42:30;9.98;;;4.43;;
33738;SDS011;20063;51.730;11.110;2022-07-31T00:47:52;5.35;;;4.05;;
33738;SDS011;20063;51.730;11.110;2022-07-31T00:50:18;11.60;;;4.97;;
33738;SDS011;20063;51.730;11.110;2022-07-31T00:52:44;5.32;;;4.38;;
33738;SDS011;20063;51.730;11.110;2022-07-31T00:55:09;4.90;;;3.97;;
33738;SDS011;20063;51.730;11.110;2022-07-31T00:57:42;11.43;;;6.10;;
33738;SDS011;20063;51.730;11.110;2022-07-31T01:00:08;7.88;;;4.55;;
33738;SDS011;20063;51.730;11.110;2022-07-31T01:02:42;4.60;;;4.07;;
33738;SDS011;20063;51.730;11.110;2022-07-31T01:05:19;9.35;;;4.47;;
33738;SDS011;20063;51.730;11.110;2022-07-31T01:07:45;9.73;;;4.15;;
33738;SDS011;20063;51.730;11.110;2022-07-31T01:13:19;6.72;;;4.75;;
33738;SDS011;20063;51.730;11.110;2022-07-31T01:16:05;16.23;;;6.00;;
33738;SDS011;20063;51.730;11.110;2022-07-31T01:21:24;8.27;;;5.22;;
33738;SDS011;20063;51.730;11.110;2022-07-31T01:24:09;14.10;;;4.65;;
33738;SDS011;20063;51.730;11.110;2022-07-31T01:27:00;10.45;;;4.85;;
33738;SDS011;20063;51.730;11.110;2022-07-31T01:29:30;9.30;;;4.45;;
33738;SDS011;20063;51.730;11.110;2022-07-31T01:32:12;9.68;;;4.30;;
33738;SDS011;20063;51.730;11.110;2022-07-31T01:34:52;6.85;;;4.45;;
33738;SDS011;20063;51.730;11.110;2022-07-31T01:37:31;5.10;;;3.53;;
33738;SDS011;20063;51.730;11.110;2022-07-31T01:40:12;7.85;;;4.22;;
33738;SDS011;20063;51.730;11.110;2022-07-31T01:42:42;6.43;;;3.80;;
33738;SDS011;20063;51.730;11.110;2022-07-31T01:45:26;7.72;;;4.38;;
33738;SDS011;20063;51.730;11.110;2022-07-31T01:47:54;6.15;;;4.07;;
33738;SDS011;20063;51.730;11.110;2022-07-31T01:50:21;7.32;;;3.90;;
33738;SDS011;20063;51.730;11.110;2022-07-31T01:52:53;7.05;;;3.90;;
33738;SDS011;20063;51.730;11.110;2022-07-31T01:55:22;4.82;;;3.70;;
33738;SDS011;20063;51.730;11.110;2022-07-31T02:00:35;8.15;;;4.22;;
33738;SDS011;20063;51.730;11.110;2022-07-31T02:03:04;4.63;;;4.22;;
33738;SDS011;20063;51.730;11.110;2022-07-31T02:05:49;5.63;;;3.78;;
33738;SDS011;20063;51.730;11.110;2022-07-31T02:08:15;4.65;;;3.80;;
33738;SDS011;20063;51.730;11.110;2022-07-31T02:10:45;5.63;;;4.03;;
33738;SDS011;20063;51.730;11.110;2022-07-31T02:13:12;5.38;;;4.00;;
33738;SDS011;20063;51.730;11.110;2022-07-31T02:15:40;4.75;;;3.70;;
33738;SDS011;20063;51.730;11.110;2022-07-31T02:18:08;6.72;;;4.07;;
33738;SDS011;20063;51.730;11.110;2022-07-31T02:20:35;5.80;;;3.97;;
33738;SDS011;20063;51.730;11.110;2022-07-31T02:23:03;7.13;;;4.20;;
33738;SDS011;20063;51.730;11.110;2022-07-31T02:28:16;4.90;;;3.70;;
33738;SDS011;20063;51.730;11.110;2022-07-31T02:30:46;6.15;;;4.63;;
33738;SDS011;20063;51.730;11.110;2022-07-31T02:33:20;3.88;;;3.38;;
33738;SDS011;20063;51.730;11.110;2022-07-31T02:35:50;3.90;;;3.50;;
33738;SDS011;20063;51.730;11.110;2022-07-31T02:38:25;10.65;;;4.47;;
33738;SDS011;20063;51.730;11.110;2022-07-31T02:40:53;6.13;;;4.43;;
33738;SDS011;20063;51.730;11.110;2022-07-31T02:43:21;4.20;;;3.35;;
33738;SDS011;20063;51.730;11.110;2022-07-31T02:45:49;3.95;;;3.55;;
33738;SDS011;20063;51.730;11.110;2022-07-31T02:48:15;5.78;;;4.35;;
33738;SDS011;20063;51.730;11.110;2022-07-31T02:50:41;7.40;;;4.70;;
33738;SDS011;20063;51.730;11.110;2022-07-31T02:55:55;10.65;;;5.43;;
33738;SDS011;20063;51.730;11.110;2022-07-31T02:58:31;19.40;;;5.03;;
33738;SDS011;20063;51.730;11.110;2022-07-31T03:01:00;8.10;;;4.75;;
33738;SDS011;20063;51.730;11.110;2022-07-31T03:03:28;7.97;;;4.80;;
33738;SDS011;20063;51.730;11.110;2022-07-31T03:05:53;10.25;;;5.40;;
33738;SDS011;20063;51.730;11.110;2022-07-31T03:08:19;6.28;;;4.95;;
33738;SDS011;20063;51.730;11.110;2022-07-31T03:10:45;6.40;;;4.53;;
33738;SDS011;20063;51.730;11.110;2022-07-31T03:13:11;6.45;;;4.80;;
33738;SDS011;20063;51.730;11.110;2022-07-31T03:18:55;11.98;;;5.07;;
33738;SDS011;20063;51.730;11.110;2022-07-31T03:21:21;8.85;;;4.85;;
33738;SDS011;20063;51.730;11.110;2022-07-31T03:23:55;6.38;;;5.22;;
33738;SDS011;20063;51.730;11.110;2022-07-31T03:26:22;6.75;;;4.68;;
33738;SDS011;20063;51.730;11.110;2022-07-31T03:31:59;11.02;;;5.90;;
33738;SDS011;20063;51.730;11.110;2022-07-31T03:34:34;10.57;;;4.63;;
33738;SDS011;20063;51.730;11.110;2022-07-31T03:36:59;7.97;;;4.55;;
33738;SDS011;20063;51.730;11.110;2022-07-31T03:39:33;7.90;;;5.15;;
33738;SDS011;20063;51.730;11.110;2022-07-31T03:41:59;6.45;;;4.93;;
33738;SDS011;20063;51.730;11.110;2022-07-31T03:44:31;7.78;;;5.45;;
33738;SDS011;20063;51.730;11.110;2022-07-31T03:46:57;5.28;;;4.78;;
33738;SDS011;20063;51.730;11.110;2022-07-31T03:49:42;10.10;;;6.00;;
33738;SDS011;20063;51.730;11.110;2022-07-31T03:52:08;8.88;;;4.93;;
33738;SDS011;20063;51.730;11.110;2022-07-31T03:54:46;11.15;;;4.95;;
33738;SDS011;20063;51.730;11.110;2022-07-31T03:57:12;12.88;;;5.57;;
33738;SDS011;20063;51.730;11.110;2022-07-31T03:59:43;6.80;;;5.13;;
33738;SDS011;20063;51.730;11.110;2022-07-31T04:02:10;11.90;;;7.07;;
33738;SDS011;20063;51.730;11.110;2022-07-31T04:04:46;10.90;;;6.72;;
33738;SDS011;20063;51.730;11.110;2022-07-31T04:07:13;7.65;;;6.90;;
33738;SDS011;20063;51.730;11.110;2022-07-31T04:09:39;10.93;;;7.43;;
33738;SDS011;20063;51.730;11.110;2022-07-31T04:14:50;11.40;;;6.50;;
33738;SDS011;20063;51.730;11.110;2022-07-31T04:17:25;12.40;;;7.57;;
33738;SDS011;20063;51.730;11.110;2022-07-31T04:19:51;12.93;;;6.38;;
33738;SDS011;20063;51.730;11.110;2022-07-31T04:25:09;10.52;;;5.78;;
33738;SDS011;20063;51.730;11.110;2022-07-31T04:27:35;14.27;;;8.23;;
33738;SDS011;20063;51.730;11.110;2022-07-31T04:30:03;9.73;;;7.70;;
33738;SDS011;20063;51.730;11.110;2022-07-31T04:32:29;9.93;;;6.97;;
33738;SDS011;20063;51.730;11.110;2022-07-31T04:35:05;10.40;;;7.07;;
33738;SDS011;20063;51.730;11.110;2022-07-31T04:37:31;14.32;;;6.80;;
33738;SDS011;20063;51.730;11.110;2022-07-31T04:39:57;10.73;;;6.30;;
33738;SDS011;20063;51.730;11.110;2022-07-31T04:42:38;7.75;;;5.90;;
33738;SDS011;20063;51.730;11.110;2022-07-31T04:45:04;12.65;;;6.55;;
33738;SDS011;20063;51.730;11.110;2022-07-31T04:47:30;11.85;;;6.88;;
33738;SDS011;20063;51.730;11.110;2022-07-31T04:49:57;13.30;;;6.75;;
33738;SDS011;20063;51.730;11.110;2022-07-31T04:52:22;9.77;;;7.05;;
33738;SDS011;20063;51.730;11.110;2022-07-31T04:54:57;12.23;;;6.28;;
33738;SDS011;20063;51.730;11.110;2022-07-31T04:57:22;11.60;;;6.50;;
33738;SDS011;20063;51.730;11.110;2022-07-31T04:59:57;10.90;;;7.32;;
33738;SDS011;20063;51.730;11.110;2022-07-31T05:02:23;19.00;;;7.88;;
33738;SDS011;20063;51.730;11.110;2022-07-31T05:04:50;10.77;;;6.35;;
33738;SDS011;20063;51.730;11.110;2022-07-31T05:10:11;8.88;;;6.35;;
33738;SDS011;20063;51.730;11.110;2022-07-31T05:12:58;6.63;;;5.68;;
33738;SDS011;20063;51.730;11.110;2022-07-31T05:15:24;12.02;;;5.28;;
33738;SDS011;20063;51.730;11.110;2022-07-31T05:17:51;11.60;;;7.53;;
33738;SDS011;20063;51.730;11.110;2022-07-31T05:20:17;17.27;;;6.65;;
33738;SDS011;20063;51.730;11.110;2022-07-31T05:22:55;8.75;;;5.50;;
33738;SDS011;20063;51.730;11.110;2022-07-31T05:25:21;6.55;;;4.80;;
33738;SDS011;20063;51.730;11.110;2022-07-31T05:27:53;7.65;;;4.90;;
33738;SDS011;20063;51.730;11.110;2022-07-31T05:30:18;4.95;;;4.38;;
33738;SDS011;20063;51.730;11.110;2022-07-31T05:32:44;6.68;;;5.38;;
33738;SDS011;20063;51.730;11.110;2022-07-31T05:35:11;10.15;;;5.70;;
33738;SDS011;20063;51.730;11.110;2022-07-31T05:37:37;7.55;;;4.80;;
33738;SDS011;20063;51.730;11.110;2022-07-31T05:40:16;8.07;;;4.68;;
33738;SDS011;20063;51.730;11.110;2022-07-31T05:42:42;4.40;;;4.00;;
33738;SDS011;20063;51.730;11.110;2022-07-31T05:45:11;5.90;;;3.63;;
33738;SDS011;20063;51.730;11.110;2022-07-31T05:47:36;5.32;;;3.97;;
33738;SDS011;20063;51.730;11.110;2022-07-31T05:50:04;5.20;;;4.40;;
33738;SDS011;20063;51.730;11.110;2022-07-31T05:52:31;4.93;;;4.40;;
33738;SDS011;20063;51.730;11.110;2022-07-31T05:54:56;8.70;;;5.30;;
33738;SDS011;20063;51.730;11.110;2022-07-31T05:57:22;7.35;;;5.53;;
33738;SDS011;20063;51.730;11.110;2022-07-31T05:59:55;9.30;;;6.63;;
33738;SDS011;20063;51.730;11.110;2022-07-31T06:02:21;5.90;;;5.05;;
33738;SDS011;20063;51.730;11.110;2022-07-31T06:04:47;6.85;;;5.03;;
33738;SDS011;20063;51.730;11.110;2022-07-31T06:07:14;6.55;;;4.50;;
33738;SDS011;20063;51.730;11.110;2022-07-31T06:09:39;12.23;;;5.50;;
33738;SDS011;20063;51.730;11.110;2022-07-31T06:12:05;12.98;;;5.18;;
33738;SDS011;20063;51.730;11.110;2022-07-31T06:14:31;10.50;;;4.82;;
33738;SDS011;20063;51.730;11.110;2022-07-31T06:16:57;6.88;;;5.10;;
33738;SDS011;20063;51.730;11.110;2022-07-31T06:19:22;8.02;;;5.00;;
33738;SDS011;20063;51.730;11.110;2022-07-31T06:21:48;8.27;;;4.82;;
33738;SDS011;20063;51.730;11.110;2022-07-31T06:24:13;12.07;;;4.82;;
33738;SDS011;20063;51.730;11.110;2022-07-31T06:26:39;6.45;;;4.10;;
33738;SDS011;20063;51.730;11.110;2022-07-31T06:29:05;4.60;;;3.80;;
33738;SDS011;20063;51.730;11.110;2022-07-31T06:31:32;8.70;;;4.72;;
33738;SDS011;20063;51.730;11.110;2022-07-31T06:33:58;4.90;;;3.78;;
33738;SDS011;20063;51.730;11.110;2022-07-31T06:36:35;5.28;;;4.10;;
33738;SDS011;20063;51.730;11.110;2022-07-31T06:39:00;9.80;;;4.60;;
33738;SDS011;20063;51.730;11.110;2022-07-31T06:41:29;9.63;;;4.35;;
33738;SDS011;20063;51.730;11.110;2022-07-31T06:44:16;8.68;;;4.43;;
33738;SDS011;20063;51.730;11.110;2022-07-31T06:49:16;7.70;;;4.10;;
33738;SDS011;20063;51.730;11.110;2022-07-31T06:51:49;7.25;;;4.20;;
33738;SDS011;20063;51.730;11.110;2022-07-31T06:54:14;5.30;;;3.10;;
33738;SDS011;20063;51.730;11.110;2022-07-31T06:56:40;9.43;;;4.32;;
33738;SDS011;20063;51.730;11.110;2022-07-31T06:59:05;11.32;;;4.57;;
33738;SDS011;20063;51.730;11.110;2022-07-31T07:01:39;6.70;;;3.70;;
33738;SDS011;20063;51.730;11.110;2022-07-31T07:04:04;5.45;;;3.95;;
33738;SDS011;20063;51.730;11.110;2022-07-31T07:06:30;10.30;;;4.25;;
33738;SDS011;20063;51.730;11.110;2022-07-31T07:09:06;6.55;;;3.90;;
33738;SDS011;20063;51.730;11.110;2022-07-31T07:11:31;4.53;;;3.20;;
33738;SDS011;20063;51.730;11.110;2022-07-31T07:13:58;10.35;;;3.40;;
33738;SDS011;20063;51.730;11.110;2022-07-31T07:16:24;7.88;;;3.55;;
33738;SDS011;20063;51.730;11.110;2022-07-31T07:18:49;6.68;;;3.33;;
33738;SDS011;20063;51.730;11.110;2022-07-31T07:21:17;6.43;;;3.08;;
33738;SDS011;20063;51.730;11.110;2022-07-31T07:23:43;11.93;;;3.95;;
33738;SDS011;20063;51.730;11.110;2022-07-31T07:26:09;8.15;;;4.28;;
33738;SDS011;20063;51.730;11.110;2022-07-31T07:28:35;11.70;;;3.80;;
33738;SDS011;20063;51.730;11.110;2022-07-31T07:31:12;13.07;;;3.70;;
33738;SDS011;20063;51.730;11.110;2022-07-31T07:33:38;4.72;;;2.92;;
33738;SDS011;20063;51.730;11.110;2022-07-31T07:36:03;12.18;;;4.18;;
33738;SDS011;20063;51.730;11.110;2022-07-31T07:38:29;5.82;;;3.08;;
33738;SDS011;20063;51.730;11.110;2022-07-31T07:40:56;6.47;;;3.63;;
33738;SDS011;20063;51.730;11.110;2022-07-31T07:43:21;10.27;;;2.80;;
33738;SDS011;20063;51.730;11.110;2022-07-31T07:45:47;5.97;;;3.30;;
33738;SDS011;20063;51.730;11.110;2022-07-31T07:48:13;7.43;;;3.20;;
33738;SDS011;20063;51.730;11.110;2022-07-31T07:50:38;9.10;;;3.20;;
33738;SDS011;20063;51.730;11.110;2022-07-31T07:53:04;4.47;;;2.47;;
33738;SDS011;20063;51.730;11.110;2022-07-31T07:55:29;6.00;;;3.08;;
33738;SDS011;20063;51.730;11.110;2022-07-31T07:57:55;6.07;;;2.95;;
33738;SDS011;20063;51.730;11.110;2022-07-31T08:00:20;6.88;;;3.33;;
33738;SDS011;20063;51.730;11.110;2022-07-31T08:02:47;4.75;;;3.17;;
33738;SDS011;20063;51.730;11.110;2022-07-31T08:05:13;4.75;;;2.65;;
33738;SDS011;20063;51.730;11.110;2022-07-31T08:07:45;9.35;;;3.88;;
33738;SDS011;20063;51.730;11.110;2022-07-31T08:10:11;7.68;;;3.60;;
33738;SDS011;20063;51.730;11.110;2022-07-31T08:12:38;10.38;;;3.72;;
33738;SDS011;20063;51.730;11.110;2022-07-31T08:15:11;5.22;;;3.13;;
33738;SDS011;20063;51.730;11.110;2022-07-31T08:17:36;4.38;;;2.80;;
33738;SDS011;20063;51.730;11.110;2022-07-31T08:20:02;11.20;;;3.92;;
33738;SDS011;20063;51.730;11.110;2022-07-31T08:22:28;8.48;;;3.38;;
33738;SDS011;20063;51.730;11.110;2022-07-31T08:27:35;7.25;;;3.53;;
33738;SDS011;20063;51.730;11.110;2022-07-31T08:30:03;7.57;;;2.58;;
33738;SDS011;20063;51.730;11.110;2022-07-31T08:32:29;6.43;;;2.92;;
33738;SDS011;20063;51.730;11.110;2022-07-31T08:34:55;7.55;;;2.70;;
33738;SDS011;20063;51.730;11.110;2022-07-31T08:37:21;7.85;;;3.25;;
33738;SDS011;20063;51.730;11.110;2022-07-31T08:39:47;5.88;;;3.10;;
33738;SDS011;20063;51.730;11.110;2022-07-31T08:42:14;6.50;;;3.10;;
33738;SDS011;20063;51.730;11.110;2022-07-31T08:44:41;4.72;;;2.55;;
33738;SDS011;20063;51.730;11.110;2022-07-31T08:47:11;3.35;;;2.70;;
33738;SDS011;20063;51.730;11.110;2022-07-31T08:49:43;8.20;;;2.47;;
33738;SDS011;20063;51.730;11.110;2022-07-31T08:52:20;4.38;;;2.53;;
33738;SDS011;20063;51.730;11.110;2022-07-31T08:54:57;6.47;;;2.97;;
33738;SDS011;20063;51.730;11.110;2022-07-31T08:57:25;6.35;;;3.40;;
33738;SDS011;20063;51.730;11.110;2022-07-31T08:59:54;8.45;;;3.15;;
33738;SDS011;20063;51.730;11.110;2022-07-31T09:02:20;5.13;;;3.28;;
33738;SDS011;20063;51.730;11.110;2022-07-31T09:04:46;8.20;;;2.85;;
33738;SDS011;20063;51.730;11.110;2022-07-31T09:07:13;8.73;;;3.00;;
33738;SDS011;20063;51.730;11.110;2022-07-31T09:09:43;7.40;;;3.03;;
33738;SDS011;20063;51.730;11.110;2022-07-31T09:12:11;5.25;;;2.50;;
33738;SDS011;20063;51.730;11.110;2022-07-31T09:14:37;6.80;;;2.50;;
33738;SDS011;20063;51.730;11.110;2022-07-31T09:17:09;8.70;;;2.50;;
33738;SDS011;20063;51.730;11.110;2022-07-31T09:19:40;4.93;;;3.08;;
33738;SDS011;20063;51.730;11.110;2022-07-31T09:22:29;6.35;;;2.85;;
33738;SDS011;20063;51.730;11.110;2022-07-31T09:28:16;5.60;;;2.35;;
33738;SDS011;20063;51.730;11.110;2022-07-31T09:30:42;7.65;;;2.40;;
33738;SDS011;20063;51.730;11.110;2022-07-31T09:33:20;4.47;;;2.60;;
33738;SDS011;20063;51.730;11.110;2022-07-31T09:35:48;10.45;;;2.72;;
33738;SDS011;20063;51.730;11.110;2022-07-31T09:38:15;4.30;;;2.40;;
33738;SDS011;20063;51.730;11.110;2022-07-31T09:40:43;6.38;;;2.00;;
33738;SDS011;20063;51.730;11.110;2022-07-31T09:43:19;7.75;;;1.33;;
33738;SDS011;20063;51.730;11.110;2022-07-31T09:45:59;4.50;;;1.02;;
33738;SDS011;20063;51.730;11.110;2022-07-31T09:48:25;4.72;;;1.30;;
33738;SDS011;20063;51.730;11.110;2022-07-31T09:50:51;3.15;;;1.23;;
33738;SDS011;20063;51.730;11.110;2022-07-31T09:53:21;3.38;;;1.02;;
33738;SDS011;20063;51.730;11.110;2022-07-31T09:55:48;3.22;;;1.52;;
33738;SDS011;20063;51.730;11.110;2022-07-31T09:58:15;7.65;;;1.55;;
33738;SDS011;20063;51.730;11.110;2022-07-31T10:00:40;8.23;;;1.98;;
33738;SDS011;20063;51.730;11.110;2022-07-31T10:03:06;2.13;;;1.13;;
33738;SDS011;20063;51.730;11.110;2022-07-31T10:05:32;8.88;;;1.55;;
33738;SDS011;20063;51.730;11.110;2022-07-31T10:07:58;4.80;;;1.10;;
33738;SDS011;20063;51.730;11.110;2022-07-31T10:10:24;5.07;;;1.05;;
33738;SDS011;20063;51.730;11.110;2022-07-31T10:12:54;2.03;;;1.10;;
33738;SDS011;20063;51.730;11.110;2022-07-31T10:15:23;7.32;;;1.50;;
33738;SDS011;20063;51.730;11.110;2022-07-31T10:17:50;3.78;;;1.08;;
33738;SDS011;20063;51.730;11.110;2022-07-31T10:20:18;7.85;;;0.88;;
33738;SDS011;20063;51.730;11.110;2022-07-31T10:22:48;3.42;;;1.00;;
33738;SDS011;20063;51.730;11.110;2022-07-31T10:25:20;3.85;;;1.00;;
33738;SDS011;20063;51.730;11.110;2022-07-31T10:27:50;3.88;;;1.15;;
33738;SDS011;20063;51.730;11.110;2022-07-31T10:30:17;3.20;;;1.42;;
33738;SDS011;20063;51.730;11.110;2022-07-31T10:32:44;2.90;;;1.40;;
33738;SDS011;20063;51.730;11.110;2022-07-31T10:35:10;5.22;;;1.25;;
33738;SDS011;20063;51.730;11.110;2022-07-31T10:37:55;0.95;;;0.75;;
33738;SDS011;20063;51.730;11.110;2022-07-31T10:40:42;4.57;;;1.00;;
33738;SDS011;20063;51.730;11.110;2022-07-31T10:45:46;1.80;;;1.10;;
33738;SDS011;20063;51.730;11.110;2022-07-31T10:48:13;2.40;;;1.08;;
33738;SDS011;20063;51.730;11.110;2022-07-31T10:50:39;3.83;;;1.65;;
33738;SDS011;20063;51.730;11.110;2022-07-31T10:53:11;3.03;;;1.23;;
33738;SDS011;20063;51.730;11.110;2022-07-31T10:55:39;3.08;;;1.10;;
33738;SDS011;20063;51.730;11.110;2022-07-31T10:58:06;5.05;;;1.05;;
33738;SDS011;20063;51.730;11.110;2022-07-31T11:00:33;2.45;;;1.48;;
33738;SDS011;20063;51.730;11.110;2022-07-31T11:03:21;1.70;;;1.15;;
33738;SDS011;20063;51.730;11.110;2022-07-31T11:05:53;1.15;;;0.98;;
33738;SDS011;20063;51.730;11.110;2022-07-31T11:08:20;6.45;;;1.50;;
33738;SDS011;20063;51.730;11.110;2022-07-31T11:10:53;1.90;;;1.25;;
33738;SDS011;20063;51.730;11.110;2022-07-31T11:13:20;2.20;;;1.35;;
33738;SDS011;20063;51.730;11.110;2022-07-31T11:15:48;2.47;;;1.48;;
33738;SDS011;20063;51.730;11.110;2022-07-31T11:18:17;2.92;;;1.10;;
33738;SDS011;20063;51.730;11.110;2022-07-31T11:20:44;1.05;;;0.95;;
33738;SDS011;20063;51.730;11.110;2022-07-31T11:23:11;3.20;;;1.08;;
33738;SDS011;20063;51.730;11.110;2022-07-31T11:25:42;2.38;;;1.13;;
33738;SDS011;20063;51.730;11.110;2022-07-31T11:28:10;4.50;;;0.90;;
33738;SDS011;20063;51.730;11.110;2022-07-31T11:33:15;3.40;;;1.02;;
33738;SDS011;20063;51.730;11.110;2022-07-31T11:35:51;4.35;;;1.30;;
33738;SDS011;20063;51.730;11.110;2022-07-31T11:38:17;2.78;;;1.30;;
33738;SDS011;20063;51.730;11.110;2022-07-31T11:40:47;2.38;;;0.98;;
33738;SDS011;20063;51.730;11.110;2022-07-31T11:43:13;2.25;;;1.08;;
33738;SDS011;20063;51.730;11.110;2022-07-31T11:45:49;1.80;;;1.10;;
33738;SDS011;20063;51.730;11.110;2022-07-31T11:48:18;7.28;;;1.27;;
33738;SDS011;20063;51.730;11.110;2022-07-31T11:50:47;3.95;;;1.48;;
33738;SDS011;20063;51.730;11.110;2022-07-31T11:53:15;2.38;;;1.20;;
33738;SDS011;20063;51.730;11.110;2022-07-31T11:55:53;3.40;;;1.10;;
33738;SDS011;20063;51.730;11.110;2022-07-31T11:58:21;1.92;;;0.95;;
33738;SDS011;20063;51.730;11.110;2022-07-31T12:03:37;1.65;;;1.10;;
33738;SDS011;20063;51.730;11.110;2022-07-31T12:06:03;6.65;;;1.10;;
33738;SDS011;20063;51.730;11.110;2022-07-31T12:08:30;5.80;;;1.00;;
33738;SDS011;20063;51.730;11.110;2022-07-31T12:10:58;4.35;;;1.38;;
33738;SDS011;20063;51.730;11.110;2022-07-31T12:13:25;2.70;;;0.98;;
33738;SDS011;20063;51.730;11.110;2022-07-31T12:15:53;2.25;;;1.25;;
33738;SDS011;20063;51.730;11.110;2022-07-31T12:18:18;7.28;;;1.33;;
33738;SDS011;20063;51.730;11.110;2022-07-31T12:20:55;6.22;;;1.15;;
33738;SDS011;20063;51.730;11.110;2022-07-31T12:23:37;4.40;;;1.60;;
33738;SDS011;20063;51.730;11.110;2022-07-31T12:26:21;4.03;;;1.55;;
33738;SDS011;20063;51.730;11.110;2022-07-31T12:28:56;3.70;;;1.88;;
33738;SDS011;20063;51.730;11.110;2022-07-31T12:34:25;3.42;;;1.30;;
33738;SDS011;20063;51.730;11.110;2022-07-31T12:42:07;4.80;;;1.48;;
33738;SDS011;20063;51.730;11.110;2022-07-31T12:44:32;2.20;;;1.10;;
33738;SDS011;20063;51.730;11.110;2022-07-31T12:46:58;4.38;;;1.42;;
33738;SDS011;20063;51.730;11.110;2022-07-31T12:49:26;4.40;;;1.20;;
33738;SDS011;20063;51.730;11.110;2022-07-31T12:51:51;6.13;;;1.48;;
33738;SDS011;20063;51.730;11.110;2022-07-31T12:54:17;7.93;;;1.70;;
33738;SDS011;20063;51.730;11.110;2022-07-31T12:56:42;2.95;;;1.35;;
33738;SDS011;20063;51.730;11.110;2022-07-31T12:59:16;6.53;;;1.70;;
33738;SDS011;20063;51.730;11.110;2022-07-31T13:01:41;3.50;;;1.33;;
33738;SDS011;20063;51.730;11.110;2022-07-31T13:04:07;5.72;;;1.10;;
33738;SDS011;20063;51.730;11.110;2022-07-31T13:06:35;3.00;;;1.27;;
33738;SDS011;20063;51.730;11.110;2022-07-31T13:09:01;3.85;;;1.30;;
33738;SDS011;20063;51.730;11.110;2022-07-31T13:11:32;2.90;;;1.30;;
33738;SDS011;20063;51.730;11.110;2022-07-31T13:13:58;1.00;;;0.80;;
33738;SDS011;20063;51.730;11.110;2022-07-31T13:16:25;3.30;;;1.30;;
33738;SDS011;20063;51.730;11.110;2022-07-31T13:18:50;1.95;;;1.00;;
33738;SDS011;20063;51.730;11.110;2022-07-31T13:21:16;5.35;;;1.42;;
33738;SDS011;20063;51.730;11.110;2022-07-31T13:23:41;4.05;;;1.50;;
33738;SDS011;20063;51.730;11.110;2022-07-31T13:26:07;2.55;;;1.42;;
33738;SDS011;20063;51.730;11.110;2022-07-31T13:28:32;2.42;;;1.50;;
33738;SDS011;20063;51.730;11.110;2022-07-31T13:30:58;3.80;;;1.45;;
33738;SDS011;20063;51.730;11.110;2022-07-31T13:33:23;1.52;;;1.17;;
33738;SDS011;20063;51.730;11.110;2022-07-31T13:35:49;2.35;;;1.55;;
33738;SDS011;20063;51.730;11.110;2022-07-31T13:38:15;2.63;;;1.52;;
33738;SDS011;20063;51.730;11.110;2022-07-31T13:40:41;5.07;;;1.48;;
33738;SDS011;20063;51.730;11.110;2022-07-31T13:43:25;3.83;;;2.17;;
33738;SDS011;20063;51.730;11.110;2022-07-31T13:45:51;7.00;;;1.48;;
33738;SDS011;20063;51.730;11.110;2022-07-31T13:48:17;3.38;;;1.45;;
33738;SDS011;20063;51.730;11.110;2022-07-31T13:50:42;2.60;;;1.40;;
33738;SDS011;20063;51.730;11.110;2022-07-31T13:53:08;4.45;;;1.52;;
33738;SDS011;20063;51.730;11.110;2022-07-31T13:55:35;6.43;;;1.60;;
33738;SDS011;20063;51.730;11.110;2022-07-31T13:58:01;10.90;;;1.92;;
33738;SDS011;20063;51.730;11.110;2022-07-31T14:00:27;5.53;;;1.80;;
33738;SDS011;20063;51.730;11.110;2022-07-31T14:02:54;6.05;;;2.13;;
33738;SDS011;20063;51.730;11.110;2022-07-31T14:05:20;2.88;;;1.40;;
33738;SDS011;20063;51.730;11.110;2022-07-31T14:07:46;3.75;;;2.03;;
33738;SDS011;20063;51.730;11.110;2022-07-31T14:10:11;2.70;;;1.50;;
33738;SDS011;20063;51.730;11.110;2022-07-31T14:12:38;2.53;;;1.50;;
33738;SDS011;20063;51.730;11.110;2022-07-31T14:15:04;4.35;;;1.98;;
33738;SDS011;20063;51.730;11.110;2022-07-31T14:17:32;3.65;;;2.30;;
33738;SDS011;20063;51.730;11.110;2022-07-31T14:19:57;3.40;;;1.27;;
33738;SDS011;20063;51.730;11.110;2022-07-31T14:22:23;5.28;;;1.63;;
33738;SDS011;20063;51.730;11.110;2022-07-31T14:24:49;2.00;;;1.23;;
33738;SDS011;20063;51.730;11.110;2022-07-31T14:27:15;4.00;;;1.67;;
33738;SDS011;20063;51.730;11.110;2022-07-31T14:29:41;7.07;;;2.15;;
33738;SDS011;20063;51.730;11.110;2022-07-31T14:32:06;4.40;;;1.88;;
33738;SDS011;20063;51.730;11.110;2022-07-31T14:34:32;2.45;;;1.40;;
33738;SDS011;20063;51.730;11.110;2022-07-31T14:36:57;6.30;;;1.75;;
33738;SDS011;20063;51.730;11.110;2022-07-31T14:39:23;4.30;;;1.88;;
33738;SDS011;20063;51.730;11.110;2022-07-31T14:41:48;3.35;;;1.98;;
33738;SDS011;20063;51.730;11.110;2022-07-31T14:44:14;5.25;;;1.73;;
33738;SDS011;20063;51.730;11.110;2022-07-31T14:46:39;5.40;;;1.88;;
33738;SDS011;20063;51.730;11.110;2022-07-31T14:49:05;5.80;;;1.92;;
33738;SDS011;20063;51.730;11.110;2022-07-31T14:51:34;5.32;;;2.05;;
33738;SDS011;20063;51.730;11.110;2022-07-31T14:54:00;4.80;;;1.77;;
33738;SDS011;20063;51.730;11.110;2022-07-31T14:56:25;6.20;;;2.22;;
33738;SDS011;20063;51.730;11.110;2022-07-31T14:58:51;6.65;;;2.30;;
33738;SDS011;20063;51.730;11.110;2022-07-31T15:01:17;3.67;;;1.60;;
33738;SDS011;20063;51.730;11.110;2022-07-31T15:03:42;5.78;;;2.20;;
33738;SDS011;20063;51.730;11.110;2022-07-31T15:06:08;4.10;;;1.85;;
33738;SDS011;20063;51.730;11.110;2022-07-31T15:08:33;4.68;;;1.80;;
33738;SDS011;20063;51.730;11.110;2022-07-31T15:11:06;2.65;;;2.00;;
33738;SDS011;20063;51.730;11.110;2022-07-31T15:13:31;3.55;;;1.90;;
33738;SDS011;20063;51.730;11.110;2022-07-31T15:15:57;3.40;;;1.70;;
33738;SDS011;20063;51.730;11.110;2022-07-31T15:18:22;3.33;;;1.98;;
33738;SDS011;20063;51.730;11.110;2022-07-31T15:20:49;8.57;;;2.05;;
33738;SDS011;20063;51.730;11.110;2022-07-31T15:23:14;6.40;;;2.72;;
33738;SDS011;20063;51.730;11.110;2022-07-31T15:25:40;12.95;;;2.00;;
33738;SDS011;20063;51.730;11.110;2022-07-31T15:28:06;3.40;;;1.70;;
33738;SDS011;20063;51.730;11.110;2022-07-31T15:30:31;5.68;;;1.85;;
33738;SDS011;20063;51.730;11.110;2022-07-31T15:32:57;2.85;;;1.77;;
33738;SDS011;20063;51.730;11.110;2022-07-31T15:35:22;4.25;;;2.30;;
33738;SDS011;20063;51.730;11.110;2022-07-31T15:37:48;4.40;;;1.75;;
33738;SDS011;20063;51.730;11.110;2022-07-31T15:40:14;5.45;;;2.70;;